Time;durP1;ratioP1;P1;durP2;ratioP2;P2;SDS_P1;SDS_P2;PMS_P1;PMS_P2;Temp;Humidity;BMP_temperature;BMP_pressure;BME280_temperature;BME280_humidity;BME280_pressure;Samples;Min_cycle;Max_cycle;Signal;HPM_P1;HPM_P2
2024/03/01 00:01:41;;;;;;;5.82;3.17;;;8.90;99.90;;;;;;5065553;28;20029;-73
2024/03/01 00:04:07;;;;;;;8.48;3.20;;;8.90;99.90;;;;;;5065233;28;20028;-75
2024/03/01 00:06:32;;;;;;;9.35;3.25;;;8.90;99.90;;;;;;5048929;28;20025;-74
2024/03/01 00:08:58;;;;;;;10.50;3.10;;;8.90;99.90;;;;;;5065648;28;20127;-75
2024/03/01 00:11:24;;;;;;;6.20;3.05;;;8.90;99.90;;;;;;5067507;28;20043;-74
2024/03/01 00:13:50;;;;;;;5.15;2.60;;;9.00;99.90;;;;;;5055207;28;20037;-75
2024/03/01 00:16:15;;;;;;;9.07;3.17;;;9.00;99.90;;;;;;5043588;28;20378;-74
2024/03/01 00:18:41;;;;;;;4.57;2.67;;;9.00;99.90;;;;;;5047077;28;20123;-73
2024/03/01 00:21:07;;;;;;;5.60;2.70;;;9.00;99.90;;;;;;5056905;28;20033;-73
2024/03/01 00:23:34;;;;;;;5.88;2.50;;;9.00;99.90;;;;;;5047631;28;20077;-74
2024/03/01 00:25:59;;;;;;;4.97;2.47;;;9.00;99.90;;;;;;5056351;28;20045;-74
2024/03/01 00:28:25;;;;;;;6.90;2.75;;;9.00;99.90;;;;;;5059162;28;20036;-74
2024/03/01 00:30:50;;;;;;;9.07;2.47;;;9.00;99.90;;;;;;5052400;28;20037;-74
2024/03/01 00:33:16;;;;;;;6.70;2.78;;;9.00;99.90;;;;;;5058244;28;20055;-75
2024/03/01 00:35:41;;;;;;;8.63;2.75;;;9.00;99.90;;;;;;5047292;28;20034;-75
2024/03/01 00:38:07;;;;;;;7.38;3.08;;;9.00;99.90;;;;;;5042090;28;20041;-75
2024/03/01 00:40:32;;;;;;;5.50;2.30;;;9.00;99.90;;;;;;5057707;28;20040;-74
2024/03/01 00:42:58;;;;;;;5.65;2.60;;;9.00;99.90;;;;;;5044945;28;20063;-74
2024/03/01 00:45:24;;;;;;;5.95;2.75;;;9.10;99.90;;;;;;5059828;28;20029;-73
2024/03/01 00:47:52;;;;;;;5.95;2.83;;;9.10;99.90;;;;;;5044795;28;20143;-74
2024/03/01 00:50:21;;;;;;;5.43;2.65;;;9.00;99.90;;;;;;5043036;28;20090;-74
2024/03/01 00:52:47;;;;;;;6.90;3.05;;;9.00;99.90;;;;;;5059206;28;20429;-71
2024/03/01 00:55:13;;;;;;;4.55;2.47;;;9.00;99.90;;;;;;5054993;28;20392;-74
2024/03/01 00:57:38;;;;;;;7.20;2.10;;;9.00;99.90;;;;;;5057630;28;20047;-74
2024/03/01 01:00:08;;;;;;;6.75;2.63;;;9.00;99.90;;;;;;5057046;28;20485;-74
2024/03/01 01:02:34;;;;;;;6.22;2.50;;;9.00;99.90;;;;;;5060363;28;20040;-74
2024/03/01 01:05:00;;;;;;;6.68;2.72;;;9.00;99.90;;;;;;5054914;28;20029;-73
2024/03/01 01:07:25;;;;;;;5.28;2.28;;;9.00;99.90;;;;;;5060255;28;20513;-74
2024/03/01 01:09:51;;;;;;;8.02;2.83;;;9.00;99.90;;;;;;5057181;28;20040;-74
2024/03/01 01:12:17;;;;;;;9.18;2.83;;;9.00;99.90;;;;;;5046942;28;20067;-75
2024/03/01 01:14:43;;;;;;;4.25;1.90;;;9.00;99.90;;;;;;5058959;28;20036;-74
2024/03/01 01:17:08;;;;;;;6.03;2.47;;;9.00;99.90;;;;;;5059031;28;20083;-74
2024/03/01 01:19:34;;;;;;;3.03;2.03;;;9.00;99.90;;;;;;5060370;28;20036;-74
2024/03/01 01:21:59;;;;;;;4.72;2.40;;;8.90;99.90;;;;;;5048029;28;20035;-72
2024/03/01 01:24:26;;;;;;;5.22;1.83;;;9.00;99.90;;;;;;5051832;28;20037;-73
2024/03/01 01:26:51;;;;;;;5.60;2.20;;;9.00;99.90;;;;;;5062647;28;20147;-74
2024/03/01 01:29:17;;;;;;;5.03;1.98;;;9.00;99.90;;;;;;5063986;28;20743;-76
2024/03/01 01:31:42;;;;;;;5.63;2.50;;;9.00;99.90;;;;;;5059368;28;20055;-74
2024/03/01 01:34:08;;;;;;;5.38;2.13;;;9.00;99.90;;;;;;5048316;28;20047;-75
2024/03/01 01:36:33;;;;;;;5.32;2.00;;;9.00;99.90;;;;;;5063073;28;20075;-75
2024/03/01 01:38:59;;;;;;;4.53;2.22;;;9.00;99.90;;;;;;5059783;28;20494;-74
2024/03/01 01:41:24;;;;;;;3.88;1.60;;;9.10;99.90;;;;;;5064609;28;20032;-75
2024/03/01 01:43:50;;;;;;;4.03;1.80;;;9.10;99.90;;;;;;5049612;28;20120;-75
2024/03/01 01:46:16;;;;;;;3.40;1.65;;;9.00;99.90;;;;;;5050966;28;20056;-74
2024/03/01 01:48:43;;;;;;;3.47;1.63;;;9.10;99.90;;;;;;5064459;28;20028;-74
2024/03/01 01:51:12;;;;;;;3.83;1.65;;;9.10;99.90;;;;;;5063541;28;20111;-75
2024/03/01 01:53:38;;;;;;;7.45;1.83;;;9.10;99.90;;;;;;5062285;28;20472;-74
2024/03/01 01:56:05;;;;;;;4.80;2.13;;;9.10;99.90;;;;;;5049245;28;20060;-74
2024/03/01 01:58:33;;;;;;;5.22;2.33;;;9.10;99.90;;;;;;5066918;28;20036;-74
2024/03/01 02:01:07;;;;;;;7.30;1.85;;;9.10;99.90;;;;;;5062532;28;20032;-74
2024/03/01 02:03:35;;;;;;;2.53;1.50;;;9.10;99.90;;;;;;5066408;28;20529;-73
2024/03/01 02:06:03;;;;;;;4.03;1.75;;;9.10;99.90;;;;;;5061146;28;20120;-74
2024/03/01 02:08:33;;;;;;;3.45;1.52;;;9.10;99.90;;;;;;5065641;28;20051;-75
2024/03/01 02:10:59;;;;;;;3.33;1.65;;;9.10;99.90;;;;;;5048640;28;20406;-75
2024/03/01 02:13:25;;;;;;;5.93;2.22;;;9.10;99.90;;;;;;5065874;28;20076;-73
2024/03/01 02:15:53;;;;;;;3.13;1.70;;;9.20;99.90;;;;;;5064975;28;20120;-74
2024/03/01 02:18:18;;;;;;;3.53;1.38;;;9.10;99.90;;;;;;5061302;28;20037;-77
2024/03/01 02:20:59;;;;;;;3.72;1.88;;;9.20;99.90;;;;;;5050425;28;20448;-73
2024/03/01 02:23:25;;;;;;;3.60;2.00;;;9.20;99.90;;;;;;5048775;28;20048;-73
2024/03/01 02:25:51;;;;;;;3.92;1.83;;;9.20;99.90;;;;;;5066112;28;20533;-76
2024/03/01 02:28:17;;;;;;;3.90;1.38;;;9.20;99.90;;;;;;5066272;28;20060;-74
2024/03/01 02:30:44;;;;;;;3.63;1.73;;;9.20;99.90;;;;;;5063483;28;20029;-73
2024/03/01 02:33:10;;;;;;;2.72;1.52;;;9.10;99.90;;;;;;5049367;28;20475;-74
2024/03/01 02:35:36;;;;;;;6.07;1.90;;;9.20;99.90;;;;;;5054416;28;20040;-74
2024/03/01 02:38:01;;;;;;;4.28;1.58;;;9.20;99.90;;;;;;5075820;28;20039;-74
2024/03/01 02:40:27;;;;;;;3.75;2.30;;;9.20;99.90;;;;;;5076269;28;20036;-75
2024/03/01 02:42:53;;;;;;;4.95;2.15;;;9.20;99.90;;;;;;5075926;28;20032;-74
2024/03/01 02:45:18;;;;;;;4.53;1.90;;;9.20;99.90;;;;;;5066909;28;20040;-73
2024/03/01 02:47:44;;;;;;;2.30;1.50;;;9.20;99.90;;;;;;5067741;28;20089;-76
2024/03/01 02:50:09;;;;;;;3.55;1.75;;;9.20;99.90;;;;;;5062365;28;20036;-74
2024/03/01 02:52:35;;;;;;;5.88;2.15;;;9.20;99.90;;;;;;5067086;28;20068;-74
2024/03/01 02:55:01;;;;;;;8.82;1.90;;;9.20;99.90;;;;;;5065416;28;20037;-75
2024/03/01 02:57:27;;;;;;;3.30;1.73;;;9.20;99.90;;;;;;5067792;28;20036;-74
2024/03/01 02:59:53;;;;;;;3.13;1.63;;;9.20;99.90;;;;;;5045596;28;20033;-77
2024/03/01 03:02:18;;;;;;;3.97;1.95;;;9.20;99.90;;;;;;5066136;28;20627;-75
2024/03/01 03:04:44;;;;;;;3.72;1.90;;;9.20;99.90;;;;;;5066821;28;20093;-74
2024/03/01 03:07:10;;;;;;;3.47;1.70;;;9.20;99.90;;;;;;5062752;28;20119;-74
2024/03/01 03:09:40;;;;;;;3.85;1.90;;;9.20;99.90;;;;;;5067460;28;20032;-74
2024/03/01 03:12:06;;;;;;;7.10;1.90;;;9.10;99.90;;;;;;5062108;28;20119;-76
2024/03/01 03:14:32;;;;;;;3.40;1.77;;;9.10;99.90;;;;;;5063505;28;20033;-75
2024/03/01 03:16:58;;;;;;;2.28;1.00;;;9.10;99.90;;;;;;5066209;28;20083;-74
2024/03/01 03:19:23;;;;;;;1.83;0.73;;;8.90;99.90;;;;;;5063545;28;20119;-75
2024/03/01 03:21:49;;;;;;;1.45;0.40;;;8.80;99.90;;;;;;5049351;28;20086;-75
2024/03/01 03:24:14;;;;;;;1.88;0.47;;;8.70;99.90;;;;;;5062149;28;20048;-75
2024/03/01 03:26:40;;;;;;;1.92;0.28;;;8.50;99.90;;;;;;5049906;28;20063;-73
2024/03/01 03:29:05;;;;;;;2.38;0.38;;;8.40;99.90;;;;;;5066281;28;20098;-77
2024/03/01 03:31:31;;;;;;;0.77;0.10;;;8.20;99.90;;;;;;5063334;28;20028;-75
2024/03/01 03:33:57;;;;;;;0.22;0.20;;;8.10;99.90;;;;;;5060459;28;20033;-74
2024/03/01 03:36:22;;;;;;;1.08;0.20;;;8.00;99.90;;;;;;5056473;28;20394;-75
2024/03/01 03:38:48;;;;;;;2.88;0.60;;;8.00;99.90;;;;;;5048584;28;20032;-75
2024/03/01 03:41:13;;;;;;;0.98;0.20;;;7.80;99.90;;;;;;5045119;28;20082;-73
2024/03/01 03:43:39;;;;;;;1.00;0.40;;;7.70;99.90;;;;;;5049446;28;20506;-75
2024/03/01 03:46:05;;;;;;;1.33;0.30;;;7.70;99.90;;;;;;5041377;28;20040;-73
2024/03/01 03:48:30;;;;;;;7.30;0.38;;;7.60;99.90;;;;;;5059268;28;20044;-75
2024/03/01 03:50:57;;;;;;;2.85;0.28;;;7.50;99.90;;;;;;5056905;28;20052;-74
2024/03/01 03:53:22;;;;;;;0.47;0.38;;;7.40;99.90;;;;;;5047574;28;20094;-73
2024/03/01 03:55:48;;;;;;;1.27;0.20;;;7.30;99.90;;;;;;5059747;28;20036;-72
2024/03/01 03:58:15;;;;;;;2.15;0.25;;;7.30;99.90;;;;;;5055949;28;20041;-75
2024/03/01 04:00:40;;;;;;;1.55;0.20;;;7.20;99.90;;;;;;5060159;28;20034;-73
2024/03/01 04:03:06;;;;;;;2.47;0.45;;;7.20;99.90;;;;;;5055614;28;20044;-75
2024/03/01 04:05:32;;;;;;;0.65;0.05;;;7.20;99.90;;;;;;5059404;28;20055;-75
2024/03/01 04:07:57;;;;;;;1.65;0.20;;;7.10;99.90;;;;;;5055895;28;20033;-74
2024/03/01 04:10:23;;;;;;;2.85;0.35;;;7.10;99.90;;;;;;5058844;28;20025;-74
2024/03/01 04:12:48;;;;;;;2.28;0.22;;;7.10;99.90;;;;;;5060106;28;20033;-74
2024/03/01 04:15:14;;;;;;;4.90;0.85;;;7.10;99.90;;;;;;5056948;28;21818;-73
2024/03/01 04:17:40;;;;;;;5.07;0.30;;;7.00;99.90;;;;;;5060816;28;20506;-76
2024/03/01 04:20:07;;;;;;;0.52;0.20;;;7.00;99.90;;;;;;5057565;28;20455;-74
2024/03/01 04:22:33;;;;;;;1.77;0.30;;;7.00;99.90;;;;;;5060691;28;20429;-74
2024/03/01 04:24:59;;;;;;;0.75;0.20;;;7.00;99.90;;;;;;5058208;28;20510;-75
2024/03/01 04:27:25;;;;;;;1.17;0.77;;;7.00;99.90;;;;;;5047830;28;20452;-74
2024/03/01 04:29:51;;;;;;;1.60;0.17;;;7.00;99.90;;;;;;5061227;28;20082;-75
2024/03/01 04:32:20;;;;;;;2.42;0.20;;;7.00;99.90;;;;;;5055959;28;20102;-76
2024/03/01 04:34:47;;;;;;;4.10;0.93;;;7.00;99.90;;;;;;5060487;28;20054;-71
2024/03/01 04:37:14;;;;;;;3.45;0.85;;;6.90;99.90;;;;;;5045129;28;20032;-74
2024/03/01 04:39:40;;;;;;;3.70;0.45;;;6.90;99.90;;;;;;5046920;28;20021;-75
2024/03/01 04:42:05;;;;;;;4.15;0.88;;;6.90;99.90;;;;;;5045071;28;20094;-75
2024/03/01 04:44:31;;;;;;;10.10;1.00;;;6.90;99.90;;;;;;5061437;28;20040;-75
2024/03/01 04:46:56;;;;;;;7.60;0.70;;;6.90;99.90;;;;;;5059007;28;20120;-75
2024/03/01 04:49:22;;;;;;;2.28;0.32;;;6.90;99.90;;;;;;5046952;28;20043;-74
2024/03/01 04:51:48;;;;;;;2.75;0.43;;;6.90;99.90;;;;;;5048680;28;20032;-74
2024/03/01 04:54:13;;;;;;;4.07;0.60;;;6.90;99.90;;;;;;5056655;28;20044;-73
2024/03/01 04:56:39;;;;;;;1.35;0.47;;;6.90;99.90;;;;;;5060920;28;20082;-74
2024/03/01 04:59:05;;;;;;;3.10;0.45;;;6.90;99.90;;;;;;5045665;28;20036;-74
2024/03/01 05:01:30;;;;;;;3.80;0.30;;;6.90;99.90;;;;;;5061792;28;20094;-75
2024/03/01 05:03:56;;;;;;;4.00;0.38;;;6.90;99.90;;;;;;5060088;28;20032;-74
2024/03/01 05:06:21;;;;;;;1.50;0.20;;;6.90;99.90;;;;;;5061237;28;20483;-73
2024/03/01 05:08:47;;;;;;;4.25;0.30;;;6.90;99.90;;;;;;5060535;28;20028;-72
2024/03/01 05:11:14;;;;;;;2.00;0.20;;;6.90;99.90;;;;;;5058955;28;20093;-75
2024/03/01 05:13:39;;;;;;;3.78;0.30;;;7.00;99.90;;;;;;5048242;28;20856;-73
2024/03/01 05:16:05;;;;;;;3.28;0.38;;;6.90;99.90;;;;;;5059740;28;20041;-74
2024/03/01 05:18:30;;;;;;;1.65;0.22;;;7.00;99.90;;;;;;5045391;28;20040;-75
2024/03/01 05:20:56;;;;;;;2.33;0.60;;;7.00;99.90;;;;;;5060303;28;20485;-74
2024/03/01 05:23:22;;;;;;;9.10;1.63;;;7.00;99.90;;;;;;5047363;28;20041;-74
2024/03/01 05:25:48;;;;;;;3.97;0.57;;;6.90;99.90;;;;;;5048667;28;20025;-72
2024/03/01 05:28:14;;;;;;;3.00;0.30;;;6.90;99.90;;;;;;5059792;28;20045;-74
2024/03/01 05:30:40;;;;;;;4.55;0.93;;;6.90;99.90;;;;;;5061860;28;20520;-76
2024/03/01 05:33:08;;;;;;;2.45;0.82;;;7.00;99.90;;;;;;5056947;28;20044;-75
2024/03/01 05:35:35;;;;;;;5.55;1.38;;;6.90;99.90;;;;;;5062910;28;20032;-75
2024/03/01 05:38:01;;;;;;;4.63;1.50;;;6.90;99.90;;;;;;5043734;28;20467;-75
2024/03/01 05:40:26;;;;;;;4.63;0.50;;;6.80;99.90;;;;;;5045533;28;20028;-74
2024/03/01 05:42:53;;;;;;;1.13;0.45;;;6.80;99.90;;;;;;5047828;28;20052;-74
2024/03/01 05:45:20;;;;;;;2.30;0.70;;;6.70;99.90;;;;;;5058157;28;20164;-74
2024/03/01 05:47:46;;;;;;;3.42;1.02;;;6.60;99.90;;;;;;5059481;28;20426;-74
2024/03/01 05:50:12;;;;;;;8.43;1.00;;;6.60;99.90;;;;;;5061119;28;20040;-74
2024/03/01 05:52:43;;;;;;;8.20;1.05;;;6.50;99.90;;;;;;5047628;28;20098;-75
2024/03/01 05:55:12;;;;;;;4.35;1.05;;;6.40;99.90;;;;;;5059931;28;20051;-75
2024/03/01 05:57:38;;;;;;;3.47;0.60;;;6.30;99.90;;;;;;5057696;28;20513;-75
2024/03/01 06:00:09;;;;;;;2.25;0.80;;;6.30;99.90;;;;;;5061269;28;20040;-75
2024/03/01 06:02:35;;;;;;;6.03;1.27;;;6.20;99.90;;;;;;5060115;28;20037;-74
2024/03/01 06:05:02;;;;;;;3.58;0.93;;;6.20;99.90;;;;;;5045953;28;20089;-74
2024/03/01 06:07:27;;;;;;;10.55;1.30;;;6.10;99.90;;;;;;5049951;28;20493;-75
2024/03/01 06:09:53;;;;;;;2.80;0.93;;;6.10;99.90;;;;;;5063083;28;20043;-74
2024/03/01 06:12:18;;;;;;;4.20;1.27;;;6.10;99.90;;;;;;5065625;28;20043;-74
2024/03/01 06:14:44;;;;;;;3.33;0.85;;;6.00;99.90;;;;;;5052031;28;20064;-74
2024/03/01 06:17:09;;;;;;;5.75;1.02;;;6.00;99.90;;;;;;5066639;28;20030;-74
2024/03/01 06:19:35;;;;;;;5.00;1.23;;;6.00;99.90;;;;;;5051881;28;20067;-74
2024/03/01 06:22:00;;;;;;;4.80;1.42;;;6.00;99.90;;;;;;5066971;28;20119;-73
2024/03/01 06:24:26;;;;;;;3.90;1.38;;;6.00;99.90;;;;;;5048691;28;20062;-74
2024/03/01 06:26:54;;;;;;;2.72;1.02;;;5.90;99.90;;;;;;5071878;28;20047;-75
2024/03/01 06:29:20;;;;;;;2.45;1.02;;;5.90;99.90;;;;;;5051090;28;20525;-75
2024/03/01 06:31:45;;;;;;;4.85;1.00;;;5.90;99.90;;;;;;5058686;28;20044;-77
2024/03/01 06:34:11;;;;;;;2.20;0.95;;;5.80;99.90;;;;;;5058401;28;20094;-75
2024/03/01 06:36:36;;;;;;;5.70;1.33;;;5.80;99.90;;;;;;5060211;28;20045;-76
2024/03/01 06:39:02;;;;;;;2.60;1.10;;;5.80;99.90;;;;;;5059827;28;20029;-75
2024/03/01 06:41:28;;;;;;;2.25;0.85;;;5.90;99.90;;;;;;5068067;28;20037;-75
2024/03/01 06:43:54;;;;;;;1.42;0.43;;;5.90;99.90;;;;;;5050676;28;20153;-74
2024/03/01 06:46:19;;;;;;;6.40;1.20;;;5.90;99.90;;;;;;5049598;28;20100;-74
2024/03/01 06:48:45;;;;;;;4.40;1.23;;;5.90;99.90;;;;;;5067912;28;20051;-75
2024/03/01 06:51:11;;;;;;;3.45;0.82;;;5.90;99.90;;;;;;5065793;28;20048;-75
2024/03/01 06:53:36;;;;;;;4.78;0.90;;;5.80;99.90;;;;;;5065569;28;20052;-75
2024/03/01 06:56:02;;;;;;;4.97;1.00;;;5.80;99.90;;;;;;5049467;28;20029;-76
2024/03/01 06:58:28;;;;;;;2.28;1.00;;;5.80;99.90;;;;;;5067883;28;20032;-75
2024/03/01 07:00:54;;;;;;;3.00;1.55;;;5.80;99.90;;;;;;5068227;28;20033;-75
2024/03/01 07:03:20;;;;;;;11.18;1.00;;;5.70;99.90;;;;;;5049146;28;20253;-75
2024/03/01 07:05:45;;;;;;;2.65;0.82;;;5.70;99.90;;;;;;5056392;28;20033;-76
2024/03/01 07:08:11;;;;;;;1.23;0.60;;;5.80;99.90;;;;;;5058028;28;20035;-76
2024/03/01 07:10:36;;;;;;;4.35;1.00;;;5.80;99.90;;;;;;5058057;28;20090;-76
2024/03/01 07:13:02;;;;;;;4.20;0.73;;;5.70;99.90;;;;;;5049025;28;20048;-74
2024/03/01 07:15:29;;;;;;;6.55;1.80;;;5.70;99.90;;;;;;5043044;28;20033;-74
2024/03/01 07:17:56;;;;;;;5.47;1.23;;;5.70;99.90;;;;;;5060218;28;20024;-74
2024/03/01 07:20:22;;;;;;;3.20;1.25;;;5.70;99.90;;;;;;5047299;28;20801;-74
2024/03/01 07:22:49;;;;;;;2.92;0.90;;;5.70;99.90;;;;;;5064573;28;20028;-72
2024/03/01 07:25:14;;;;;;;3.05;1.10;;;5.70;99.90;;;;;;5056016;28;20037;-74
2024/03/01 07:27:41;;;;;;;3.28;0.93;;;5.70;99.90;;;;;;5062229;28;20121;-73
2024/03/01 07:30:07;;;;;;;6.47;1.40;;;5.70;99.90;;;;;;5059467;28;20073;-74
2024/03/01 07:32:34;;;;;;;2.35;0.98;;;5.70;99.90;;;;;;5048804;28;20052;-74
2024/03/01 07:35:07;;;;;;;2.13;1.02;;;5.80;99.90;;;;;;5059405;28;20471;-76
2024/03/01 07:37:33;;;;;;;6.68;1.10;;;5.80;99.90;;;;;;5056536;28;20035;-74
2024/03/01 07:39:59;;;;;;;6.05;1.08;;;5.90;99.90;;;;;;5046758;28;20036;-75
2024/03/01 07:42:25;;;;;;;4.88;1.38;;;6.00;99.90;;;;;;5046206;28;20040;-76
2024/03/01 07:44:51;;;;;;;9.32;2.22;;;6.10;99.90;;;;;;5059954;28;20054;-75
2024/03/01 07:47:17;;;;;;;5.57;1.73;;;6.20;99.90;;;;;;5056904;28;20040;-76
2024/03/01 07:49:42;;;;;;;5.22;2.22;;;6.30;99.90;;;;;;5059713;28;20037;-75
2024/03/01 07:52:08;;;;;;;5.60;2.33;;;6.30;99.90;;;;;;5057377;28;20028;-75
2024/03/01 07:54:34;;;;;;;6.47;2.47;;;6.40;99.90;;;;;;5058979;28;20128;-75
2024/03/01 07:56:59;;;;;;;11.43;2.90;;;6.50;99.90;;;;;;5060689;28;20052;-75
2024/03/01 07:59:25;;;;;;;6.93;3.30;;;6.50;99.90;;;;;;5057536;28;20033;-75
2024/03/01 08:01:51;;;;;;;5.63;2.58;;;6.60;99.90;;;;;;5061230;28;20033;-75
2024/03/01 08:04:16;;;;;;;6.38;2.78;;;6.60;99.90;;;;;;5059617;28;20569;-75
2024/03/01 08:06:42;;;;;;;7.82;2.75;;;6.90;99.90;;;;;;5064377;28;20082;-75
2024/03/01 08:09:22;;;;;;;5.57;3.28;;;7.10;99.90;;;;;;5064070;28;20029;-76
2024/03/01 08:11:48;;;;;;;7.18;2.35;;;7.20;99.90;;;;;;5047895;28;20035;-72
2024/03/01 08:14:24;;;;;;;7.43;2.50;;;7.20;99.90;;;;;;5059910;28;20048;-75
2024/03/01 08:16:54;;;;;;;10.25;2.90;;;7.30;99.90;;;;;;5061200;28;20512;-73
2024/03/01 08:19:21;;;;;;;5.87;3.00;;;7.30;99.90;;;;;;5044700;28;20085;-75
2024/03/01 08:21:48;;;;;;;9.48;3.80;;;7.40;99.90;;;;;;5061349;28;20325;-74
2024/03/01 08:24:22;;;;;;;7.25;3.35;;;7.50;99.90;;;;;;5059540;28;20036;-74
2024/03/01 08:26:48;;;;;;;8.02;3.55;;;7.50;99.90;;;;;;5046064;28;20037;-73
2024/03/01 08:29:13;;;;;;;8.45;3.65;;;7.60;99.90;;;;;;5054293;28;20479;-75
2024/03/01 08:31:39;;;;;;;14.25;3.50;;;7.60;99.90;;;;;;5055560;28;20033;-76
2024/03/01 08:34:15;;;;;;;8.13;3.80;;;7.60;99.90;;;;;;5058892;28;20396;-75
2024/03/01 08:36:41;;;;;;;8.48;3.30;;;7.50;99.90;;;;;;5055291;28;20025;-75
2024/03/01 08:39:15;;;;;;;8.55;3.83;;;7.50;99.90;;;;;;5047035;28;20554;-77
2024/03/01 08:41:45;;;;;;;8.32;3.90;;;7.50;99.90;;;;;;5044468;28;20124;-76
2024/03/01 08:44:59;;;;;;;10.10;4.88;;;7.50;99.90;;;;;;5059573;28;20483;-74
2024/03/01 08:47:25;;;;;;;11.57;4.88;;;7.60;99.90;;;;;;5051803;28;20689;-75
2024/03/01 08:49:53;;;;;;;12.40;4.03;;;7.60;99.90;;;;;;5048085;28;20028;-74
2024/03/01 08:52:30;;;;;;;9.35;3.67;;;7.60;99.90;;;;;;5060300;28;20033;-74
2024/03/01 08:54:58;;;;;;;11.40;4.10;;;7.60;99.90;;;;;;5054603;28;20428;-75
2024/03/01 08:57:28;;;;;;;9.20;3.20;;;7.60;99.90;;;;;;5045414;28;20051;-74
2024/03/01 08:59:53;;;;;;;14.75;3.42;;;7.70;99.90;;;;;;5061705;28;20048;-74
2024/03/01 09:02:46;;;;;;;7.72;3.53;;;7.70;99.90;;;;;;5055994;28;20052;-76
2024/03/01 09:05:13;;;;;;;8.88;3.53;;;7.70;99.90;;;;;;5042322;28;20025;-72
2024/03/01 09:07:39;;;;;;;9.10;3.20;;;7.70;99.90;;;;;;5058255;28;20031;-73
2024/03/01 09:10:18;;;;;;;8.40;3.50;;;7.80;99.90;;;;;;5048228;28;20037;-73
2024/03/01 09:12:46;;;;;;;7.57;3.08;;;7.80;99.90;;;;;;5053837;28;20033;-73
2024/03/01 09:15:15;;;;;;;11.68;3.20;;;7.90;99.90;;;;;;5059240;28;20033;-72
2024/03/01 09:17:41;;;;;;;5.22;2.17;;;7.90;99.90;;;;;;5045285;28;20028;-75
2024/03/01 09:20:22;;;;;;;9.23;3.03;;;8.00;99.90;;;;;;5063365;28;20044;-73
2024/03/01 09:22:47;;;;;;;7.65;3.17;;;8.00;99.90;;;;;;5062770;28;20589;-72
2024/03/01 09:25:39;;;;;;;10.02;2.55;;;8.10;99.90;;;;;;5039726;28;20123;-77
2024/03/01 09:28:06;;;;;;;8.60;3.15;;;8.20;99.90;;;;;;5040906;28;20139;-72
2024/03/01 09:30:31;;;;;;;8.73;3.53;;;8.20;99.90;;;;;;5059625;28;20033;-74
2024/03/01 09:32:57;;;;;;;12.10;2.47;;;8.30;99.90;;;;;;5061781;28;20033;-73
2024/03/01 09:35:25;;;;;;;4.40;1.95;;;8.30;99.90;;;;;;5047589;28;20037;-72
2024/03/01 09:37:52;;;;;;;8.15;2.92;;;8.40;99.90;;;;;;5048980;28;20124;-74
2024/03/01 09:40:37;;;;;;;7.75;2.55;;;8.40;99.90;;;;;;5060651;28;20029;-73
2024/03/01 09:43:25;;;;;;;4.93;1.98;;;8.50;99.90;;;;;;5065749;28;20128;-72
2024/03/01 09:45:54;;;;;;;5.88;2.22;;;8.50;99.90;;;;;;5049293;28;20546;-72
2024/03/01 09:48:22;;;;;;;14.85;2.42;;;8.60;99.90;;;;;;5051070;28;20460;-74
2024/03/01 09:51:16;;;;;;;6.40;1.70;;;8.70;99.90;;;;;;5049875;28;20882;-73
2024/03/01 09:53:53;;;;;;;4.25;1.75;;;8.80;99.90;;;;;;5045837;28;20037;-73
2024/03/01 09:56:44;;;;;;;14.48;3.30;;;8.80;99.90;;;;;;5047836;28;20029;-73
2024/03/01 09:59:13;;;;;;;5.82;2.30;;;8.80;99.90;;;;;;5060781;28;20032;-73
2024/03/01 10:01:43;;;;;;;8.32;2.63;;;8.70;99.90;;;;;;5070054;28;20040;-72
2024/03/01 10:04:38;;;;;;;6.70;1.98;;;8.70;99.90;;;;;;5069582;28;20036;-76
2024/03/01 10:07:28;;;;;;;10.45;2.22;;;8.70;99.90;;;;;;5068419;28;20573;-72
2024/03/01 10:09:59;;;;;;;5.68;1.98;;;8.80;99.90;;;;;;5067572;28;20095;-73
2024/03/01 10:12:46;;;;;;;5.65;1.85;;;8.90;99.90;;;;;;5069314;28;20055;-74
2024/03/01 10:15:27;;;;;;;7.60;2.28;;;8.90;99.90;;;;;;5053113;28;20036;-73
2024/03/01 10:18:36;;;;;;;10.50;2.28;;;8.90;99.90;;;;;;5059513;28;20029;-72
2024/03/01 10:21:29;;;;;;;7.05;1.92;;;8.80;99.90;;;;;;5059214;28;20116;-73
2024/03/01 10:24:19;;;;;;;8.23;1.77;;;8.90;99.90;;;;;;5048489;28;20041;-75
2024/03/01 10:27:01;;;;;;;5.70;2.03;;;9.00;99.90;;;;;;5057711;28;20033;-74
2024/03/01 10:30:01;;;;;;;5.50;1.52;;;9.00;99.90;;;;;;5054035;28;20040;-72
2024/03/01 10:32:45;;;;;;;3.90;1.27;;;9.10;99.90;;;;;;5045769;28;20029;-73
2024/03/01 10:35:19;;;;;;;5.40;1.67;;;9.10;99.90;;;;;;5060419;28;20298;-73
2024/03/01 10:37:59;;;;;;;7.63;1.77;;;9.20;99.90;;;;;;5047806;28;20033;-74
2024/03/01 10:40:26;;;;;;;;;;;9.10;99.90;;;;;;5056531;28;20145;-73
2024/03/01 10:43:24;;;;;;;5.28;2.33;;;9.10;99.90;;;;;;5048201;28;19940;-72
2024/03/01 10:46:07;;;;;;;3.20;1.38;;;9.20;99.90;;;;;;5044680;28;20116;-73
2024/03/01 10:48:46;;;;;;;3.17;1.35;;;9.20;99.90;;;;;;5039895;28;20521;-73
2024/03/01 10:51:15;;;;;;;3.65;1.40;;;9.20;99.90;;;;;;5039815;28;20179;-74
2024/03/01 10:53:48;;;;;;;4.95;1.40;;;9.20;99.90;;;;;;5042432;28;20120;-72
2024/03/01 10:56:15;;;;;;;5.47;1.50;;;9.20;99.90;;;;;;5043693;28;20064;-73
2024/03/01 10:58:51;;;;;;;4.43;0.90;;;9.20;99.90;;;;;;5048684;28;20498;-71
2024/03/01 11:01:46;;;;;;;4.15;1.08;;;9.20;99.90;;;;;;5026348;28;20041;-73
2024/03/01 11:04:40;;;;;;;4.88;1.33;;;9.10;99.90;;;;;;5041130;28;20375;-74
2024/03/01 11:07:31;;;;;;;5.15;1.27;;;9.10;99.90;;;;;;5039041;28;20034;-73
2024/03/01 11:10:01;;;;;;;3.85;1.50;;;9.00;99.90;;;;;;5024886;28;20037;-73
2024/03/01 11:12:39;;;;;;;5.93;1.40;;;9.00;99.90;;;;;;5041669;28;20095;-74
2024/03/01 11:15:17;;;;;;;5.60;1.88;;;8.90;99.90;;;;;;5039257;28;20034;-72
2024/03/01 11:17:47;;;;;;;6.13;1.20;;;8.90;99.90;;;;;;5039347;28;20086;-74
2024/03/01 11:20:21;;;;;;;1.02;0.73;;;8.90;99.90;;;;;;5037544;28;20022;-73
2024/03/01 11:22:53;;;;;;;2.97;0.88;;;8.80;99.90;;;;;;5040203;28;20044;-72
2024/03/01 11:25:22;;;;;;;1.60;0.80;;;8.70;99.90;;;;;;5042589;28;20680;-68
2024/03/01 11:28:05;;;;;;;2.15;1.38;;;8.80;99.90;;;;;;5046283;28;20039;-66
2024/03/01 11:30:34;;;;;;;4.55;1.10;;;8.80;99.90;;;;;;5046047;28;20037;-73
2024/03/01 11:33:03;;;;;;;2.50;0.98;;;8.80;99.90;;;;;;5041126;28;20074;-70
2024/03/01 11:35:43;;;;;;;11.98;1.33;;;9.00;99.90;;;;;;5041885;28;20037;-71
2024/03/01 11:38:23;;;;;;;3.37;1.10;;;9.10;99.90;;;;;;5041727;28;20043;-73
2024/03/01 11:41:11;;;;;;;8.48;1.65;;;9.20;99.90;;;;;;5043425;28;20021;-71
2024/03/01 11:43:43;;;;;;;3.25;1.15;;;9.10;99.90;;;;;;5047861;28;20115;-73
2024/03/01 11:46:30;;;;;;;2.72;0.77;;;9.00;99.90;;;;;;5042985;28;20025;-73
2024/03/01 11:49:20;;;;;;;3.72;0.82;;;9.00;99.90;;;;;;5026586;28;20857;-74
2024/03/01 11:52:20;;;;;;;3.53;0.90;;;9.10;99.90;;;;;;5025603;28;20401;-74
2024/03/01 11:55:33;;;;;;;2.53;0.90;;;9.20;99.90;;;;;;5058946;28;20113;-71
2024/03/01 11:58:43;;;;;;;2.80;1.15;;;9.50;99.90;;;;;;5030815;28;20060;-73
2024/03/01 12:01:23;;;;;;;3.63;0.68;;;9.50;99.90;;;;;;5044909;28;20036;-74
2024/03/01 12:04:14;;;;;;;3.85;0.75;;;9.70;99.90;;;;;;5063924;28;20109;-70
2024/03/01 12:07:04;;;;;;;1.90;0.63;;;9.70;99.90;;;;;;5047350;28;20043;-74
2024/03/01 12:09:57;;;;;;;2.97;0.68;;;9.90;99.90;;;;;;5040375;28;20041;-74
2024/03/01 12:12:46;;;;;;;5.20;0.90;;;10.00;99.90;;;;;;5036991;28;20585;-73
2024/03/01 12:15:18;;;;;;;4.13;0.70;;;10.00;99.90;;;;;;5041539;28;20528;-76
2024/03/01 12:18:10;;;;;;;0.82;0.35;;;10.00;99.90;;;;;;5040006;28;20037;-76
2024/03/01 12:20:37;;;;;;;6.45;0.30;;;10.00;99.90;;;;;;5019461;28;20041;-73
2024/03/01 12:23:33;;;;;;;3.60;0.38;;;9.90;99.90;;;;;;5037531;28;20045;-73
2024/03/01 12:26:00;;;;;;;1.65;0.30;;;9.90;99.90;;;;;;5033126;28;20055;-73
2024/03/01 12:29:04;;;;;;;2.38;0.40;;;9.90;99.90;;;;;;5042908;28;20563;-72
2024/03/01 12:31:57;;;;;;;1.45;0.35;;;10.00;99.90;;;;;;5039412;28;20041;-77
2024/03/01 12:34:40;;;;;;;1.48;0.20;;;10.20;99.90;;;;;;5026142;28;20513;-73
2024/03/01 12:37:43;;;;;;;1.55;0.47;;;10.30;99.90;;;;;;5046298;28;20119;-72
2024/03/01 12:40:21;;;;;;;1.65;0.40;;;10.30;99.90;;;;;;5014504;28;20035;-74
2024/03/01 12:42:49;;;;;;;1.75;0.38;;;10.40;99.90;;;;;;5042945;28;20033;-75
2024/03/01 12:45:45;;;;;;;5.53;0.38;;;10.40;99.90;;;;;;5021208;28;20103;-72
2024/03/01 12:48:38;;;;;;;0.93;0.20;;;10.50;99.90;;;;;;5043807;28;20094;-74
2024/03/01 12:51:13;;;;;;;1.23;0.30;;;10.40;99.90;;;;;;5035922;28;20071;-72
2024/03/01 12:54:02;;;;;;;2.08;0.32;;;10.30;99.90;;;;;;5039703;28;20033;-75
2024/03/01 12:57:01;;;;;;;3.75;0.20;;;10.30;99.90;;;;;;5041591;28;20640;-73
2024/03/01 12:59:48;;;;;;;8.00;0.73;;;10.10;99.90;;;;;;5039958;28;20093;-74
2024/03/01 13:02:34;;;;;;;2.83;0.60;;;9.90;99.90;;;;;;5051456;28;20045;-74
2024/03/01 13:05:21;;;;;;;3.17;0.45;;;9.90;99.90;;;;;;5045892;28;20695;-72
2024/03/01 13:07:51;;;;;;;2.33;0.55;;;9.80;99.90;;;;;;5045068;28;20037;-73
2024/03/01 13:10:18;;;;;;;2.85;0.98;;;9.80;99.90;;;;;;5032514;28;20044;-73
2024/03/01 13:12:47;;;;;;;2.00;0.20;;;9.70;99.90;;;;;;5040890;28;20045;-75
2024/03/01 13:15:17;;;;;;;2.83;0.85;;;9.70;99.90;;;;;;5040542;28;20096;-74